Hales Location, New Hampshire
Current Conditions -  °F | °C
As of 3:54 AM on Sunday 21 Dec 2014 (Local Time) from KIZG Reporting Station
Overcast Overcast  
Wind Chill: 10°   Ceiling: 800
Heat Index: 19°   Visibility: 10mi
Dew Point: 16°   Wind: 7mph
Humidity: 88%   Direction: 360°N
Pressure: 30.33"   Gusts: NA
Location:  44.0406°N, 71.0915°W
Report Text: KIZG 210854Z AUTO 36006KT 10SM OVC008 M07/M09 A3033 RMK AO2 SLP277 T10721089 58001
Loading
Personal Weather Stations






























Interactive Weather Map New forecast layout! Learn more

10-Day Weather Forecast

Advertisements
Track Severe Weather on mobile